LFBA/AGF METAR and TAF weather

Enter ICAO airport designator
Station Type Date Time Source
LFBA METAR 2021/05/11 02:00 UTC NOAA

LFBA 110200Z AUTO 26006KT CAVOK 10/08 Q1009


Station Type Date Time Source
LFBA Decoded METAR 2021/05/11 02:00 UTC NOAA

Agen, France (LFBA) 44-11N 000-36E 60M
May 10, 2021 - 10:00 PM EDT / 2021.05.11 0200 UTC
Wind: from the W (260 degrees) at 7 MPH (6 KT):0
Visibility: greater than 7 mile(s):0
Temperature: 50 F (10 C)
Dew Point: 46 F (8 C)
Relative Humidity: 87%
Pressure (altimeter): 29.80 in. Hg (1009 hPa)
ob: LFBA 110200Z AUTO 26006KT CAVOK 10/08 Q1009
cycle: 2

Station Type Date Time Source
LFBA TAF 2014/12/22 20:03 UTC NOAA

TAF
AMD TAF
AMD LFBA 222037Z 2220/2224 12007KT 0400 FG VV///
TEMPO 2220/2224 0100 PROB30
TEMPO 2222/2224 FZFG

Example: see airport list